Terminal Aerodrome Forecast
Issued by NWS La Crosse, WI

Home | Current Version | Previous Version | Text Only | Print | Product List | Glossary On
Versions: 1 2 3 4 5 6 7 8 9 10 11 12 13 14 15 16 17 18 19 20 21 22 23 24 25 26 27 28 29 30 31 32 33 34 35 36 37 38 39 40 41 42 43 44 45 46 47 48
000
FTUS43 KARX 270226 AAA
TAFRST
TAF AMD
KRST 270226Z 2702/2724 02010KT 4SM -SN OVC007
      TEMPO 2702/2704 1SM -SN OVC004
     FM270400 36008KT 3SM -SN BR OVC003
     FM270900 34012KT 3/4SM -SN BR OVC002
     FM271500 31015G22KT 4SM -SN OVC006
     FM271900 30015G22KT P6SM BKN012=

USA.gov is the U.S. government's official web portal to all federal, state and local government web resources and services.